ATL weather

Hartsfield Jackson Atlanta International Airport
Atlanta, Georgia, United States

Public forecast

Using degrees Fahrenheit for public forecast. Weather courtesy of forecast.io.

METAR (pilot weather report)

Retrieved 2017/05/23 19:52 UTC (26 minutes ago):

KATL 231952Z 21006KT 10SM FEW015 BKN030 OVC070 21/18 A2975 RMK AO2 SLP066 T02110178

TAF (pilot weather forecast)

Retrieved 2017/05/23 18:36 UTC (2 hours ago):

TAF KATL 231733Z 2318/2424 24007KT 6SM -SHRA SCT009 BKN045 TEMPO 2318/2319 4SM -SHRA BKN009 FM232000 24006KT P6SM VCSH SCT015 BKN035 FM240000 20005KT P6SM VCSH SCT025 BKN040 FM240600 21005KT P6SM OVC006 FM241200 21008KT 6SM -SHRA OVC006 TEMPO 2414/2417 VRB15G25KT 4SM -TSRA BKN008CB FM241700 23015G25KT P6SM VCSH BKN025